Time;durP1;ratioP1;P1;durP2;ratioP2;P2;SDS_P1;SDS_P2;PMS_P1;PMS_P2;Temp;Humidity;BMP_temperature;BMP_pressure;BME280_temperature;BME280_humidity;BME280_pressure;Samples;Min_cycle;Max_cycle;Signal;HPM_P1;HPM_P2
2023/03/19 00:02:17;;;;;;;11.57;5.38;;;;;;;7.92;100.00;98436.31;5016928;28;20037;-79
2023/03/19 00:04:44;;;;;;;12.68;5.30;;;;;;;8.16;100.00;98473.59;5024488;28;20042;-78
2023/03/19 00:07:10;;;;;;;9.38;5.20;;;;;;;8.19;100.00;98477.75;5015113;28;20033;-80
2023/03/19 00:09:35;;;;;;;19.67;6.20;;;;;;;8.12;100.00;98478.56;5021395;28;20014;-77
2023/03/19 00:12:00;;;;;;;14.90;6.20;;;;;;;7.82;100.00;98440.19;5012443;28;20428;-79
2023/03/19 00:14:25;;;;;;;19.05;9.18;;;;;;;7.97;100.00;98463.50;5009690;28;20491;-79
2023/03/19 00:16:51;;;;;;;20.95;10.40;;;;;;;7.95;100.00;98461.00;5017811;28;20034;-78
2023/03/19 00:19:16;;;;;;;18.60;8.93;;;;;;;8.03;100.00;98490.50;5023512;28;20383;-79
2023/03/19 00:21:41;;;;;;;13.95;6.88;;;;;;;7.87;100.00;98469.22;5021994;28;20399;-79
2023/03/19 00:24:08;;;;;;;12.57;7.05;;;;;;;8.06;100.00;98492.78;5021239;28;20085;-78
2023/03/19 00:26:35;;;;;;;12.40;6.90;;;;;;;7.91;100.00;98454.31;5011782;28;20038;-78
2023/03/19 00:29:02;;;;;;;14.73;6.75;;;;;;;8.05;100.00;98488.44;5018160;28;20053;-79
2023/03/19 00:31:28;;;;;;;12.85;6.88;;;;;;;8.20;100.00;98479.41;5021652;28;20635;-81
2023/03/19 00:33:56;;;;;;;19.52;8.60;;;;;;;8.15;100.00;98479.16;5014527;28;20026;-81
2023/03/19 00:36:22;;;;;;;11.10;6.55;;;;;;;8.22;100.00;98474.66;5015959;28;20084;-81
2023/03/19 00:38:47;;;;;;;12.80;6.63;;;;;;;8.05;100.00;98472.28;5013489;28;20025;-81
2023/03/19 00:41:14;;;;;;;16.98;8.75;;;;;;;8.03;100.00;98466.25;5012392;28;20391;-80
2023/03/19 00:43:39;;;;;;;19.08;8.10;;;;;;;8.06;100.00;98492.78;5004964;28;21044;-81
2023/03/19 00:46:06;;;;;;;14.43;5.65;;;;;;;7.95;100.00;98479.03;5007766;28;20116;-81
2023/03/19 00:48:31;;;;;;;14.68;5.63;;;;;;;7.84;100.00;98470.44;5006254;28;20021;-80
2023/03/19 00:51:08;;;;;;;10.70;4.95;;;;;;;7.85;100.00;98495.50;5009753;28;20052;-81
2023/03/19 00:53:42;;;;;;;16.20;4.72;;;;;;;7.71;100.00;98475.72;5015528;28;20089;-81
2023/03/19 00:56:12;;;;;;;9.82;4.78;;;;;;;7.77;100.00;98476.81;5012637;28;20040;-81
2023/03/19 00:58:39;;;;;;;5.72;3.25;;;;;;;7.84;100.00;98483.09;5001451;28;20022;-82
2023/03/19 01:01:05;;;;;;;7.00;3.70;;;;;;;8.01;100.00;98480.94;5013269;28;20567;-80
2023/03/19 01:03:30;;;;;;;11.75;3.70;;;;;;;7.99;100.00;98482.97;5010664;28;20037;-80
2023/03/19 01:05:57;;;;;;;7.80;3.80;;;;;;;7.96;100.00;98484.22;5007954;28;20042;-81
2023/03/19 01:08:22;;;;;;;11.52;3.60;;;;;;;7.92;100.00;98474.03;5007486;28;20324;-78
2023/03/19 01:10:47;;;;;;;6.40;2.92;;;;;;;7.86;100.00;98472.97;5015528;28;20053;-79
2023/03/19 01:13:13;;;;;;;6.20;3.40;;;;;;;7.89;100.00;98475.25;5006445;28;20030;-80
2023/03/19 01:15:40;;;;;;;7.57;3.22;;;;;;;7.89;100.00;98472.56;5008101;28;20030;-78
2023/03/19 01:18:07;;;;;;;7.85;3.20;;;;;;;8.02;100.00;98471.84;5013781;28;20037;-81
2023/03/19 01:20:34;;;;;;;5.40;2.95;;;;;;;7.96;100.00;98457.28;5015145;28;20053;-80
2023/03/19 01:23:00;;;;;;;8.82;3.05;;;;;;;8.12;100.00;98470.47;5031084;28;20026;-78
2023/03/19 01:25:26;;;;;;;8.75;3.78;;;;;;;8.13;100.00;98474.81;5011475;28;20425;-80
2023/03/19 01:27:51;;;;;;;7.70;3.83;;;;;;;8.21;100.00;98487.31;5014821;28;20034;-80
2023/03/19 01:30:17;;;;;;;11.70;4.70;;;;;;;8.25;100.00;98483.22;5020929;28;20092;-81
2023/03/19 01:32:42;;;;;;;9.98;4.78;;;;;;;8.08;100.00;98476.44;5008184;28;20057;-79
2023/03/19 01:35:08;;;;;;;10.25;4.80;;;;;;;7.95;100.00;98482.56;5015365;28;20117;-80
2023/03/19 01:37:34;;;;;;;7.93;4.50;;;;;;;7.94;100.00;98482.72;5014066;28;20034;-80
2023/03/19 01:39:59;;;;;;;9.02;4.88;;;;;;;8.06;100.00;98492.78;5016651;28;20033;-79
2023/03/19 01:42:25;;;;;;;10.38;5.32;;;;;;;7.99;100.00;98499.16;5035625;28;20006;-79
2023/03/19 01:44:50;;;;;;;7.57;4.57;;;;;;;7.91;100.00;98470.50;5035056;28;20041;-77
2023/03/19 01:47:22;;;;;;;8.20;5.20;;;;;;;7.44;100.00;98412.69;5035351;28;20025;-78
2023/03/19 01:49:53;;;;;;;11.43;4.95;;;;;;;7.72;100.00;98473.84;5029244;28;20041;-78
2023/03/19 01:52:20;;;;;;;8.88;4.97;;;;;;;7.72;100.00;98503.47;5021273;28;20025;-79
2023/03/19 01:54:46;;;;;;;10.32;4.78;;;;;;;7.72;100.00;98503.47;5016099;28;20030;-79
2023/03/19 01:57:13;;;;;;;9.65;5.47;;;;;;;7.81;100.00;98507.72;5015987;28;20049;-78
2023/03/19 01:59:49;;;;;;;8.50;4.68;;;;;;;7.88;100.00;98528.28;5009365;28;20113;-78
2023/03/19 02:02:22;;;;;;;12.52;5.60;;;;;;;7.81;100.00;98518.50;5018169;28;20084;-77
2023/03/19 02:04:52;;;;;;;7.22;5.05;;;;;;;7.99;100.00;98548.50;5039800;22;20076;-73
2023/03/19 02:07:19;;;;;;;8.60;5.25;;;;;;;7.95;100.00;98530.22;5029943;28;20033;-73
2023/03/19 02:09:45;;;;;;;15.13;4.85;;;;;;;7.78;100.00;98516.16;5032901;28;20441;-72
2023/03/19 02:12:11;;;;;;;7.63;5.03;;;;;;;7.80;100.00;98539.19;5032786;28;20094;-73
2023/03/19 02:14:37;;;;;;;9.57;5.13;;;;;;;7.85;100.00;98538.59;5035830;28;20021;-73
2023/03/19 02:17:02;;;;;;;13.23;5.57;;;;;;;7.93;100.00;98554.63;5032592;28;20029;-73
2023/03/19 02:19:42;;;;;;;9.88;5.25;;;;;;;7.85;100.00;98558.28;5033015;28;20061;-72
2023/03/19 02:22:10;;;;;;;11.25;5.28;;;;;;;7.78;100.00;98554.72;5034284;28;20035;-73
2023/03/19 02:24:44;;;;;;;11.45;5.28;;;;;;;7.92;100.00;98574.53;5030608;28;20028;-72
2023/03/19 02:27:09;;;;;;;15.60;5.45;;;;;;;7.95;100.00;98576.00;5028341;28;20434;-73
2023/03/19 02:29:35;;;;;;;12.30;6.15;;;;;;;7.85;100.00;98579.00;5026000;28;20155;-72
2023/03/19 02:32:02;;;;;;;13.73;5.57;;;;;;;7.86;100.00;98572.63;5013354;28;20037;-73
2023/03/19 02:34:36;;;;;;;14.82;5.55;;;;;;;7.88;100.00;98581.31;5025591;28;20025;-73
2023/03/19 02:37:13;;;;;;;10.60;5.82;;;;;;;7.95;100.00;98574.13;5033573;28;20040;-73
2023/03/19 02:40:21;;;;;;;11.73;5.57;;;;;;;7.95;100.00;98584.91;5032828;28;20076;-73
2023/03/19 02:42:46;;;;;;;11.50;5.95;;;;;;;7.87;100.00;98571.56;4978247;28;20069;-73
2023/03/19 02:45:12;;;;;;;10.57;5.70;;;;;;;7.87;100.00;98567.00;5012542;28;20115;-73
2023/03/19 02:47:38;;;;;;;11.10;5.93;;;;;;;7.92;100.00;98582.59;5009871;28;20108;-73
2023/03/19 02:50:03;;;;;;;15.98;6.40;;;;;;;8.02;100.00;98575.03;5019503;28;20390;-75
2023/03/19 02:52:29;;;;;;;10.98;5.93;;;;;;;8.09;100.00;98573.22;5014435;28;20027;-73
2023/03/19 02:54:54;;;;;;;12.45;6.40;;;;;;;8.05;100.00;98563.06;5031377;28;20029;-73
2023/03/19 02:57:20;;;;;;;10.52;6.30;;;;;;;8.16;100.00;98584.09;5024391;28;20021;-73
2023/03/19 02:59:45;;;;;;;15.02;5.97;;;;;;;8.20;100.00;98576.44;5025431;28;20025;-73
2023/03/19 03:02:10;;;;;;;9.88;5.72;;;;;;;8.17;100.00;98587.59;5028231;28;20039;-73
2023/03/19 03:04:36;;;;;;;10.15;5.93;;;;;;;8.14;100.00;98575.34;5015933;28;20021;-73
2023/03/19 03:07:02;;;;;;;12.38;5.88;;;;;;;8.16;100.00;98599.41;5027200;28;20095;-73
2023/03/19 03:09:27;;;;;;;11.50;5.53;;;;;;;8.15;100.00;98589.66;5031311;28;20476;-73
2023/03/19 03:11:53;;;;;;;9.35;5.45;;;;;;;8.10;100.00;98583.00;5013558;28;20087;-73
2023/03/19 03:14:18;;;;;;;16.85;5.72;;;;;;;8.10;100.00;98583.00;5031277;28;20036;-73
2023/03/19 03:16:44;;;;;;;14.43;6.10;;;;;;;8.09;100.00;98596.66;5011372;28;20025;-73
2023/03/19 03:19:10;;;;;;;12.40;5.63;;;;;;;8.13;100.00;98589.88;5031108;28;20041;-73
2023/03/19 03:21:36;;;;;;;15.13;6.53;;;;;;;8.08;100.00;98595.81;5023221;28;20025;-73
2023/03/19 03:24:01;;;;;;;11.73;6.35;;;;;;;8.09;100.00;98600.16;5031021;28;20029;-73
2023/03/19 03:26:26;;;;;;;10.07;6.00;;;;;;;8.20;100.00;98598.84;5014084;28;20538;-73
2023/03/19 03:28:52;;;;;;;8.75;5.35;;;;;;;8.17;100.00;98598.38;5028094;28;20033;-73
2023/03/19 03:31:18;;;;;;;15.48;6.40;;;;;;;8.12;100.00;98596.25;5028496;28;20057;-73
2023/03/19 03:33:43;;;;;;;11.73;5.15;;;;;;;8.14;100.00;98588.81;5034145;28;20387;-74
2023/03/19 03:36:08;;;;;;;13.75;6.03;;;;;;;8.13;100.00;98597.94;5027051;28;20033;-73
2023/03/19 03:38:34;;;;;;;10.15;6.28;;;;;;;8.13;100.00;98595.25;5009859;28;20149;-73
2023/03/19 03:40:59;;;;;;;9.98;6.70;;;;;;;8.10;100.00;98596.47;5031171;28;20491;-73
2023/03/19 03:43:25;;;;;;;9.52;5.38;;;;;;;8.13;100.00;98598.78;5022088;28;20361;-73
2023/03/19 03:45:50;;;;;;;9.20;5.78;;;;;;;8.18;100.00;98592.00;5028324;28;20112;-73
2023/03/19 03:48:16;;;;;;;13.25;5.15;;;;;;;8.16;100.00;98594.88;5024415;28;20022;-73
2023/03/19 03:50:41;;;;;;;11.38;6.28;;;;;;;8.04;100.00;98578.38;5013608;28;20109;-73
2023/03/19 03:53:07;;;;;;;9.20;5.78;;;;;;;8.07;100.00;98593.34;5017519;28;20032;-73
2023/03/19 03:55:33;;;;;;;15.90;5.15;;;;;;;8.07;100.00;98586.09;5013100;28;20104;-73
2023/03/19 03:57:59;;;;;;;11.93;5.50;;;;;;;7.96;100.00;98580.34;5027526;28;20375;-73
2023/03/19 04:00:25;;;;;;;11.02;4.82;;;;;;;7.97;100.00;98568.56;5011139;28;20034;-73
2023/03/19 04:02:50;;;;;;;8.85;5.05;;;;;;;8.04;100.00;98582.91;5029064;28;20033;-73
2023/03/19 04:05:16;;;;;;;10.15;4.35;;;;;;;8.01;100.00;98589.53;5024229;28;20021;-73
2023/03/19 04:07:42;;;;;;;8.95;5.00;;;;;;;8.01;100.00;98594.09;5034009;28;20416;-73
2023/03/19 04:10:09;;;;;;;11.07;5.18;;;;;;;8.00;100.00;98595.94;5031763;28;20405;-73
2023/03/19 04:12:36;;;;;;;10.35;5.40;;;;;;;7.97;100.00;98596.34;5026655;28;20029;-73
2023/03/19 04:15:02;;;;;;;10.95;5.20;;;;;;;7.99;100.00;98593.44;5021951;28;20396;-73
2023/03/19 04:17:28;;;;;;;8.27;4.63;;;;;;;7.96;100.00;98591.97;5028010;28;20382;-73
2023/03/19 04:19:53;;;;;;;6.95;4.45;;;;;;;7.86;100.00;98586.09;5028007;28;20021;-73
2023/03/19 04:22:18;;;;;;;11.23;4.97;;;;;;;8.00;100.00;98604.03;5006463;28;20064;-73
2023/03/19 04:24:44;;;;;;;15.98;7.32;;;;;;;7.97;100.00;98608.97;5030731;28;20037;-73
2023/03/19 04:27:09;;;;;;;9.18;6.25;;;;;;;7.96;100.00;98608.13;5015104;28;20533;-73
2023/03/19 04:29:34;;;;;;;13.48;5.55;;;;;;;7.99;100.00;98607.75;5025367;28;20429;-73
2023/03/19 04:32:00;;;;;;;11.15;5.65;;;;;;;7.98;100.00;98614.16;5014059;28;20025;-73
2023/03/19 04:34:25;;;;;;;12.18;5.07;;;;;;;7.93;100.00;98605.00;5033506;28;20044;-73
2023/03/19 04:36:50;;;;;;;12.18;4.18;;;;;;;7.90;100.00;98614.28;5034479;28;20034;-73
2023/03/19 04:39:17;;;;;;;8.20;4.95;;;;;;;7.90;100.00;98617.81;5034582;28;20356;-73
2023/03/19 04:41:43;;;;;;;11.82;5.63;;;;;;;7.86;100.00;98623.78;5013432;28;20033;-73
2023/03/19 04:44:08;;;;;;;10.95;6.05;;;;;;;7.67;100.00;98642.19;5031102;28;20029;-73
2023/03/19 04:46:33;;;;;;;12.18;6.28;;;;;;;7.51;100.00;98623.56;5031201;28;20280;-73
2023/03/19 04:48:59;;;;;;;12.30;5.78;;;;;;;7.62;100.00;98638.41;5033801;28;20116;-73
2023/03/19 04:51:25;;;;;;;10.00;5.75;;;;;;;7.64;100.00;98639.88;5024802;28;20065;-73
2023/03/19 04:53:50;;;;;;;9.90;5.75;;;;;;;7.68;100.00;98641.19;5014158;28;20044;-73
2023/03/19 04:56:16;;;;;;;12.00;5.25;;;;;;;7.68;100.00;98614.25;5030283;28;20036;-73
2023/03/19 04:58:42;;;;;;;7.38;5.25;;;;;;;7.80;100.00;98635.31;5033980;28;20021;-73
2023/03/19 05:01:08;;;;;;;6.95;5.13;;;;;;;7.90;100.00;98638.53;5013662;28;20026;-73
2023/03/19 05:03:33;;;;;;;10.10;5.38;;;;;;;7.88;100.00;98624.41;5030883;28;20112;-73
2023/03/19 05:05:58;;;;;;;11.38;5.55;;;;;;;7.85;100.00;98636.41;5028788;28;20033;-73
2023/03/19 05:08:24;;;;;;;10.05;5.30;;;;;;;7.89;100.00;98629.63;5025015;28;20438;-73
2023/03/19 05:10:49;;;;;;;9.68;5.40;;;;;;;7.87;100.00;98636.22;5030273;28;20056;-73
2023/03/19 05:13:15;;;;;;;10.15;5.72;;;;;;;7.92;100.00;98635.66;5012976;28;20613;-73
2023/03/19 05:15:42;;;;;;;7.93;5.30;;;;;;;7.95;100.00;98643.34;5027091;28;20029;-73
2023/03/19 05:18:07;;;;;;;10.70;5.35;;;;;;;7.94;100.00;98636.28;5033182;28;20032;-73
2023/03/19 05:20:33;;;;;;;11.48;5.15;;;;;;;8.07;100.00;98650.75;5034106;28;20074;-73
2023/03/19 05:22:58;;;;;;;10.25;5.78;;;;;;;8.07;100.00;98647.22;5028892;28;20040;-73
2023/03/19 05:25:24;;;;;;;8.57;5.47;;;;;;;8.08;100.00;98648.88;5031899;28;20044;-73
2023/03/19 05:27:49;;;;;;;7.78;4.88;;;;;;;8.05;100.00;98642.00;5033957;28;20044;-73
2023/03/19 05:30:17;;;;;;;10.45;5.43;;;;;;;8.04;100.00;98653.81;5016664;28;20025;-74
2023/03/19 05:32:43;;;;;;;8.98;4.68;;;;;;;8.14;100.00;98653.50;5032527;28;20090;-73
2023/03/19 05:35:08;;;;;;;8.73;5.03;;;;;;;8.06;100.00;98651.75;5029770;28;20481;-73
2023/03/19 05:37:33;;;;;;;7.75;4.88;;;;;;;7.99;100.00;98629.31;5009363;28;20037;-74
2023/03/19 05:39:59;;;;;;;9.45;4.78;;;;;;;8.11;100.00;98646.63;5026503;28;20033;-74
2023/03/19 05:42:24;;;;;;;8.68;4.00;;;;;;;8.08;100.00;98627.31;5016665;28;20049;-74
2023/03/19 05:44:50;;;;;;;12.40;4.65;;;;;;;8.15;100.00;98633.63;5027359;28;20072;-74
2023/03/19 05:47:15;;;;;;;10.73;4.68;;;;;;;8.22;100.00;98633.69;5021778;28;20101;-74
2023/03/19 05:49:40;;;;;;;10.40;4.70;;;;;;;8.38;100.00;98649.56;5039348;28;20110;-74
2023/03/19 05:52:06;;;;;;;11.13;4.45;;;;;;;8.35;100.00;98648.09;5033853;28;20041;-74
2023/03/19 05:54:31;;;;;;;11.23;4.22;;;;;;;8.43;100.00;98649.03;5030718;28;20032;-74
2023/03/19 05:56:57;;;;;;;8.07;4.35;;;;;;;8.38;100.00;98637.97;5027769;28;20032;-74
2023/03/19 05:59:22;;;;;;;10.27;4.60;;;;;;;8.44;100.00;98650.72;5032320;28;20112;-74
2023/03/19 06:01:47;;;;;;;6.47;4.10;;;;;;;8.56;100.00;98665.34;5013912;28;20037;-74
2023/03/19 06:04:13;;;;;;;8.57;4.70;;;;;;;8.57;100.00;98648.16;5027284;28;20029;-74
2023/03/19 06:06:38;;;;;;;8.32;5.00;;;;;;;8.54;100.00;98651.22;5030714;28;20387;-74
2023/03/19 06:09:04;;;;;;;8.07;4.72;;;;;;;8.60;100.00;98645.06;5032558;28;20056;-74
2023/03/19 06:11:29;;;;;;;7.65;4.10;;;;;;;8.64;100.00;98648.19;5019588;28;20082;-73
2023/03/19 06:13:55;;;;;;;10.55;4.07;;;;;;;8.75;100.00;98659.28;5030112;28;20037;-74
2023/03/19 06:16:20;;;;;;;7.65;3.85;;;;;;;8.78;100.00;98664.28;5028050;28;20080;-73
2023/03/19 06:18:46;;;;;;;7.45;4.00;;;;;;;8.80;100.00;98669.47;5035280;28;20402;-74
2023/03/19 06:21:11;;;;;;;8.23;4.18;;;;;;;9.00;100.00;98686.66;5030920;28;20036;-73
2023/03/19 06:23:37;;;;;;;6.57;3.78;;;;;;;8.99;100.00;98684.19;5032911;28;20057;-74
2023/03/19 06:26:03;;;;;;;8.30;3.92;;;;;;;8.94;100.00;98665.88;5025881;28;20057;-74
2023/03/19 06:28:28;;;;;;;9.50;3.47;;;;;;;9.12;100.00;98665.38;5030746;28;20018;-74
2023/03/19 06:30:54;;;;;;;6.22;3.10;;;;;;;9.25;100.00;98680.81;5020339;28;20400;-74
2023/03/19 06:33:21;;;;;;;4.85;2.90;;;;;;;9.40;100.00;98654.53;5030452;28;20021;-74
2023/03/19 06:35:47;;;;;;;5.28;2.75;;;;;;;9.52;100.00;98664.78;5032990;28;20021;-73
2023/03/19 06:38:13;;;;;;;8.85;3.60;;;;;;;9.58;100.00;98674.78;5033014;28;20040;-78
2023/03/19 06:40:53;;;;;;;7.32;3.75;;;;;;;9.64;100.00;98665.84;5021713;28;20017;-80
2023/03/19 06:43:18;;;;;;;5.72;3.10;;;;;;;9.62;100.00;98641.75;5032963;28;20040;-79
2023/03/19 06:45:43;;;;;;;9.23;4.05;;;;;;;9.86;100.00;98661.19;5026231;28;20108;-79
2023/03/19 06:48:09;;;;;;;6.03;3.33;;;;;;;9.86;100.00;98631.47;5041251;28;20021;-79
2023/03/19 06:50:35;;;;;;;5.88;3.47;;;;;;;10.03;100.00;98658.94;5027472;28;20593;-78
2023/03/19 06:53:01;;;;;;;6.00;3.30;;;;;;;10.12;100.00;98641.50;5019238;28;20156;-79
2023/03/19 06:55:26;;;;;;;5.68;3.47;;;;;;;10.18;100.00;98651.50;5024777;28;20028;-74
2023/03/19 06:57:51;;;;;;;6.38;3.30;;;;;;;10.40;100.00;98662.19;5030147;28;20029;-74
2023/03/19 07:00:18;;;;;;;10.70;3.92;;;;;;;10.37;100.00;98668.00;5012624;28;20036;-74
2023/03/19 07:02:44;;;;;;;5.53;3.38;;;;;;;10.34;100.00;98661.13;5016057;28;20084;-76
2023/03/19 07:05:09;;;;;;;5.50;3.10;;;;;;;10.24;100.00;98639.88;5015480;28;20064;-77
2023/03/19 07:07:35;;;;;;;5.65;2.97;;;;;;;10.43;100.00;98648.28;5015807;28;20490;-77
2023/03/19 07:10:00;;;;;;;7.72;2.63;;;;;;;10.44;100.00;98655.31;5018699;28;20021;-78
2023/03/19 07:12:27;;;;;;;4.68;2.60;;;;;;;10.51;100.00;98658.88;5032142;28;20033;-76
2023/03/19 07:14:55;;;;;;;5.63;2.70;;;;;;;10.55;100.00;98657.41;5016486;28;20041;-78
2023/03/19 07:17:21;;;;;;;6.88;3.80;;;;;;;10.67;100.00;98672.00;5015258;28;20025;-78
2023/03/19 07:19:47;;;;;;;6.30;2.83;;;;;;;10.73;100.00;98673.88;5028450;28;20026;-77
2023/03/19 07:22:12;;;;;;;4.47;2.47;;;;;;;10.74;100.00;98644.94;5014153;28;20554;-78
2023/03/19 07:24:37;;;;;;;5.38;2.67;;;;;;;10.91;100.00;98670.53;4999538;28;20056;-78
2023/03/19 07:27:03;;;;;;;5.90;2.50;;;;;;;11.06;100.00;98664.09;5011935;28;20033;-78
2023/03/19 07:29:28;;;;;;;7.63;2.70;;;;;;;11.31;100.00;98675.91;5016819;28;20065;-78
2023/03/19 07:32:00;;;;;;;3.55;2.30;;;;;;;11.44;100.00;98666.91;5017677;28;20033;-78
2023/03/19 07:34:26;;;;;;;5.68;2.42;;;;;;;11.71;100.00;98674.97;5016625;28;20029;-78
2023/03/19 07:36:51;;;;;;;8.57;2.60;;;;;;;11.96;100.00;98672.41;5016052;28;20113;-78
2023/03/19 07:39:18;;;;;;;3.95;2.40;;;;;;;12.10;100.00;98676.72;5032606;28;20033;-79
2023/03/19 07:41:46;;;;;;;4.03;2.45;;;;;;;12.24;100.00;98680.22;5033918;28;20034;-78
2023/03/19 07:44:11;;;;;;;5.78;2.38;;;;;;;12.11;100.00;98680.28;5016373;28;20539;-77
2023/03/19 07:46:37;;;;;;;6.63;2.63;;;;;;;12.02;100.00;98668.81;5019972;28;20028;-77
2023/03/19 07:49:02;;;;;;;7.63;2.28;;;;;;;11.84;100.00;98666.78;5041994;28;20120;-77
2023/03/19 07:51:27;;;;;;;4.88;2.35;;;;;;;12.06;100.00;98679.03;5029041;28;20032;-78
2023/03/19 07:53:53;;;;;;;4.38;2.22;;;;;;;11.80;100.00;98689.97;5029422;28;20030;-77
2023/03/19 07:56:18;;;;;;;3.95;2.20;;;;;;;11.70;100.00;98676.84;5019853;28;20422;-77
2023/03/19 07:58:43;;;;;;;4.68;2.20;;;;;;;11.59;100.00;98691.91;5036525;28;20044;-77
2023/03/19 08:01:09;;;;;;;6.82;2.58;;;;;;;11.47;100.00;98681.91;5018499;28;20032;-77
2023/03/19 08:03:34;;;;;;;5.22;2.55;;;;;;;11.44;100.00;98675.06;5019746;28;20038;-76
2023/03/19 08:06:00;;;;;;;6.18;2.00;;;;;;;11.49;100.00;98679.84;5061368;22;20467;-74
2023/03/19 08:08:25;;;;;;;3.00;1.80;;;;;;;11.50;100.00;98679.63;4985521;28;20041;-76
2023/03/19 08:10:56;;;;;;;4.68;1.95;;;;;;;11.65;100.00;98670.41;4998796;28;20022;-75
2023/03/19 08:13:21;;;;;;;5.32;1.98;;;;;;;11.85;100.00;98677.44;5001511;28;20065;-76
2023/03/19 08:15:49;;;;;;;9.20;2.65;;;;;;;12.11;100.00;98658.59;4989881;28;20058;-76
2023/03/19 08:18:14;;;;;;;4.63;2.67;;;;;;;12.83;100.00;98659.94;4993407;28;20022;-74
2023/03/19 08:20:40;;;;;;;4.60;2.53;;;;;;;13.25;100.00;98672.97;4996823;28;20011;-74
2023/03/19 08:23:05;;;;;;;7.63;2.50;;;;;;;13.64;100.00;98671.75;4988208;28;20045;-77
2023/03/19 08:25:31;;;;;;;5.65;2.13;;;;;;;14.05;100.00;98653.91;4997414;28;20026;-73
2023/03/19 08:27:58;;;;;;;3.30;1.80;;;;;;;14.08;100.00;98672.47;4997656;28;20109;-77
2023/03/19 08:30:23;;;;;;;3.55;1.95;;;;;;;14.07;100.00;98678.13;4994628;28;20030;-75
2023/03/19 08:32:49;;;;;;;5.10;1.98;;;;;;;13.98;100.00;98669.47;4995576;28;20030;-73
2023/03/19 08:35:15;;;;;;;4.95;1.92;;;;;;;14.17;100.00;98683.84;5000045;28;20030;-82
2023/03/19 08:37:40;;;;;;;4.43;1.80;;;;;;;14.28;100.00;98657.75;4996381;28;20035;-78
2023/03/19 08:40:06;;;;;;;4.68;2.03;;;;;;;14.40;100.00;98643.13;4994222;28;20019;-79
2023/03/19 08:42:32;;;;;;;4.93;1.75;;;;;;;14.96;100.00;98684.63;4995480;28;20034;-77
2023/03/19 08:44:57;;;;;;;3.72;1.77;;;;;;;15.17;100.00;98666.03;4990984;28;20090;-78
2023/03/19 08:47:23;;;;;;;4.60;1.60;;;;;;;15.32;100.00;98680.00;4997608;28;20391;-80
2023/03/19 08:49:50;;;;;;;3.42;1.80;;;;;;;15.20;100.00;98668.28;4996356;28;20026;-79
2023/03/19 08:52:15;;;;;;;4.15;1.92;;;;;;;15.05;100.00;98645.06;5009705;28;20380;-77
2023/03/19 08:54:41;;;;;;;6.28;2.70;;;;;;;14.99;100.00;98661.53;4994566;28;20034;-75
2023/03/19 08:57:06;;;;;;;4.70;2.40;;;;;;;14.75;100.00;98623.38;4994808;28;20030;-77
2023/03/19 08:59:31;;;;;;;10.10;2.58;;;;;;;14.64;100.00;98660.38;4991650;28;20023;-77
2023/03/19 09:01:57;;;;;;;5.03;1.90;;;;;;;14.56;100.00;98666.16;4992185;28;20034;-78
2023/03/19 09:04:22;;;;;;;3.00;1.50;;;;;;;14.98;100.00;98687.09;4995948;28;20038;-77
2023/03/19 09:06:51;;;;;;;4.18;1.83;;;;;;;16.79;100.00;98678.69;4997226;28;20026;-78
2023/03/19 09:09:18;;;;;;;3.13;1.40;;;;;;;19.04;94.96;98678.88;4995414;28;20049;-78
2023/03/19 09:11:43;;;;;;;4.10;1.63;;;;;;;20.18;79.02;98659.25;4993256;28;20053;-79
2023/03/19 09:14:10;;;;;;;2.40;1.67;;;;;;;21.31;69.98;98681.44;4997682;28;20030;-77
2023/03/19 09:16:36;;;;;;;4.40;1.85;;;;;;;24.75;56.30;98677.75;4992202;28;20395;-76
2023/03/19 09:19:01;;;;;;;4.13;1.60;;;;;;;27.13;48.81;98692.00;4991401;28;20022;-74
2023/03/19 09:21:26;;;;;;;3.25;1.67;;;;;;;28.24;43.99;98671.84;4995904;28;20022;-75
2023/03/19 09:23:52;;;;;;;4.45;1.63;;;;;;;29.52;39.95;98679.78;4992583;28;20045;-79
2023/03/19 09:26:17;;;;;;;3.45;1.60;;;;;;;27.64;41.86;98676.84;4995282;28;20034;-77
2023/03/19 09:28:42;;;;;;;4.60;1.60;;;;;;;25.07;45.09;98680.59;4986264;28;20037;-74
2023/03/19 09:31:11;;;;;;;3.42;1.80;;;;;;;23.13;48.82;98671.84;4992477;28;20425;-74
2023/03/19 09:33:36;;;;;;;2.38;1.45;;;;;;;21.60;51.17;98679.75;4992653;28;20104;-74
2023/03/19 09:36:02;;;;;;;3.58;1.88;;;;;;;22.15;53.30;98670.78;4991298;28;20038;-74
2023/03/19 09:38:28;;;;;;;2.45;1.20;;;;;;;24.37;47.80;98673.03;4993176;28;20062;-74
2023/03/19 09:41:32;;;;;;;2.25;1.05;;;;;;;23.70;48.14;98672.13;4992494;28;20014;-74
2023/03/19 09:44:04;;;;;;;3.08;1.27;;;;;;;23.60;48.14;98671.13;4986276;28;20126;-74
2023/03/19 09:46:43;;;;;;;3.28;1.63;;;;;;;26.19;44.91;98658.31;4991246;28;20041;-75
2023/03/19 09:49:15;;;;;;;3.67;1.52;;;;;;;27.37;41.62;98666.72;4989901;28;20034;-74
2023/03/19 09:51:44;;;;;;;3.33;1.38;;;;;;;27.24;40.31;98650.94;4978222;28;20031;-74
2023/03/19 09:54:43;;;;;;;2.53;1.38;;;;;;;27.42;42.05;98654.66;4987041;28;20037;-74
2023/03/19 09:57:09;;;;;;;2.75;1.30;;;;;;;28.59;40.03;98656.91;4979876;28;20061;-74
2023/03/19 09:59:35;;;;;;;1.42;1.05;;;;;;;28.74;38.14;98657.53;4989101;28;20510;-74
2023/03/19 10:02:19;;;;;;;2.90;1.15;;;;;;;28.08;38.41;98657.56;4991832;28;20117;-74
2023/03/19 10:05:19;;;;;;;4.30;1.17;;;;;;;29.83;36.68;98659.22;4983766;28;20045;-74
2023/03/19 10:08:12;;;;;;;5.78;1.50;;;;;;;28.37;37.29;98659.75;4985157;28;20026;-75
2023/03/19 10:10:41;;;;;;;3.40;1.20;;;;;;;29.26;36.50;98654.75;4990580;28;20054;-74
2023/03/19 10:13:31;;;;;;;2.72;1.30;;;;;;;28.79;36.82;98652.66;4996852;28;20061;-73
2023/03/19 10:16:00;;;;;;;2.47;1.25;;;;;;;25.78;40.46;98655.50;4991958;28;20037;-74
2023/03/19 10:18:30;;;;;;;1.70;0.97;;;;;;;26.63;39.97;98656.81;4988191;28;20022;-74
2023/03/19 10:21:15;;;;;;;3.08;1.10;;;;;;;25.74;38.86;98641.47;4988933;28;20030;-74
2023/03/19 10:23:47;;;;;;;2.38;1.30;;;;;;;27.47;37.40;98644.22;4992659;28;20069;-74
2023/03/19 10:26:16;;;;;;;3.70;1.30;;;;;;;27.00;36.30;98654.81;4992153;28;20483;-74
2023/03/19 10:28:42;;;;;;;;;;;;;;;27.93;35.52;98650.50;4991518;28;20072;-73
2023/03/19 10:31:28;;;;;;;3.17;1.45;;;;;;;26.89;36.73;98662.59;4996123;28;19913;-74
2023/03/19 10:34:15;;;;;;;2.47;1.10;;;;;;;27.93;35.61;98659.66;4993153;28;20472;-73
2023/03/19 10:36:40;;;;;;;3.83;1.45;;;;;;;29.03;34.53;98654.94;4996856;28;20034;-73
2023/03/19 10:39:06;;;;;;;4.50;1.33;;;;;;;29.70;33.53;98644.34;5002580;28;20026;-73
2023/03/19 10:41:37;;;;;;;3.05;1.15;;;;;;;29.69;32.48;98645.50;5001142;28;20132;-73
2023/03/19 10:44:27;;;;;;;3.45;1.27;;;;;;;27.59;35.26;98638.06;5001264;28;20132;-74
2023/03/19 10:46:55;;;;;;;2.83;1.20;;;;;;;25.10;38.60;98635.69;4991332;28;20037;-74
2023/03/19 10:49:21;;;;;;;3.72;1.60;;;;;;;26.83;36.96;98629.72;4991580;28;20037;-74
2023/03/19 10:51:47;;;;;;;4.80;1.20;;;;;;;27.61;35.62;98629.41;4991013;28;20105;-73
2023/03/19 10:54:23;;;;;;;4.85;1.30;;;;;;;27.05;36.00;98615.81;4993418;28;20113;-73
2023/03/19 10:56:50;;;;;;;3.08;1.23;;;;;;;27.80;35.56;98618.03;4992154;28;20019;-76
2023/03/19 10:59:26;;;;;;;2.65;1.33;;;;;;;24.77;38.82;98636.78;4988786;28;20041;-76
2023/03/19 11:02:02;;;;;;;3.33;1.20;;;;;;;24.20;40.08;98634.78;4989179;28;20101;-74
2023/03/19 11:04:28;;;;;;;6.45;1.30;;;;;;;25.99;36.90;98633.78;4992107;28;20022;-74
2023/03/19 11:07:11;;;;;;;5.07;1.40;;;;;;;28.27;35.09;98615.56;4992338;28;20034;-73
2023/03/19 11:09:39;;;;;;;2.90;0.98;;;;;;;27.15;36.04;98605.59;4990780;28;20117;-74
2023/03/19 11:12:16;;;;;;;2.78;1.23;;;;;;;25.85;37.44;98622.69;4991615;28;20460;-73
2023/03/19 11:14:44;;;;;;;4.22;1.20;;;;;;;24.97;37.93;98617.09;4990945;28;20019;-74
2023/03/19 11:17:41;;;;;;;2.00;1.10;;;;;;;26.39;36.93;98626.53;4992390;28;20029;-76
2023/03/19 11:20:22;;;;;;;3.00;1.20;;;;;;;29.09;33.71;98613.81;4994168;28;20117;-74
2023/03/19 11:22:49;;;;;;;1.98;1.20;;;;;;;29.74;33.91;98611.84;4990467;28;20034;-73
2023/03/19 11:25:22;;;;;;;4.85;1.40;;;;;;;28.62;34.01;98616.44;4990763;28;20030;-73
2023/03/19 11:28:08;;;;;;;5.18;1.40;;;;;;;24.77;37.72;98623.78;4990144;28;20050;-72
2023/03/19 11:30:57;;;;;;;4.75;1.23;;;;;;;25.14;37.95;98622.06;4990421;28;20161;-74
2023/03/19 11:33:40;;;;;;;;;;;;;;;23.90;38.63;98615.88;4992165;28;20034;-73